createdAt,value
2016-04-26T00:00:28.998Z,94.98
2016-04-26T00:01:29.565Z,94.98
2016-04-26T00:02:28.956Z,95.83
2016-04-26T00:03:28.942Z,95.55
2016-04-26T00:04:28.914Z,95.26
2016-04-26T00:05:28.905Z,95.55
2016-04-26T00:06:28.893Z,95.83
2016-04-26T00:07:28.879Z,95.26
2016-04-26T00:08:28.835Z,95.83
2016-04-26T00:09:28.072Z,96.12
2016-04-26T00:10:28.793Z,95.83
2016-04-26T00:11:28.781Z,96.02
2016-04-26T00:12:28.767Z,95.69
2016-04-26T00:13:28.739Z,95.4
2016-04-26T00:14:28.711Z,95.69
2016-04-26T00:15:28.698Z,95.97
2016-04-26T00:16:30.078Z,95.69
2016-04-26T00:17:28.859Z,95.59
2016-04-26T00:18:28.643Z,95.5
2016-04-26T00:19:28.615Z,95.5
2016-04-26T00:20:28.602Z,95.78
2016-04-26T00:21:28.573Z,95.88
2016-04-26T00:22:28.575Z,96.07
2016-04-26T00:23:28.531Z,95.78
2016-04-26T00:24:28.519Z,95.78
2016-04-26T00:25:28.506Z,95.78
2016-04-26T00:26:28.477Z,95.69
2016-04-26T00:27:28.449Z,95.5
2016-04-26T00:28:28.436Z,95.59
2016-04-26T00:29:28.407Z,95.59
2016-04-26T00:30:28.410Z,95.59
2016-04-26T00:31:29.257Z,95.59
2016-04-26T00:32:28.353Z,95.31
2016-04-26T00:33:28.340Z,96.35
2016-04-26T00:34:28.311Z,96.16
2016-04-26T00:35:28.298Z,95.97
2016-04-26T00:36:28.270Z,96.73
2016-04-26T00:37:28.257Z,96.64
2016-04-26T00:38:28.260Z,96.54
2016-04-26T00:39:28.215Z,96.35
2016-04-26T00:40:28.187Z,96.54
2016-04-26T00:41:28.174Z,95.88
2016-04-26T00:42:28.145Z,95.97
2016-04-26T00:43:28.132Z,96.26
2016-04-26T00:44:28.119Z,95.97
2016-04-26T00:45:28.106Z,95.97
2016-04-26T00:46:27.922Z,95.97
2016-04-26T00:47:28.049Z,96.26
2016-04-26T00:48:28.037Z,96.07
2016-04-26T00:49:28.008Z,95.97
2016-04-26T00:50:27.978Z,96.07
2016-04-26T00:51:27.967Z,95.97
2016-04-26T00:52:27.953Z,95.97
2016-04-26T00:53:27.941Z,96.16
2016-04-26T00:54:27.912Z,96.16
2016-04-26T00:55:27.899Z,96.07
2016-04-26T00:56:27.855Z,96.35
2016-04-26T00:57:27.841Z,96.16
2016-04-26T00:58:27.829Z,96.26
2016-04-26T00:59:27.800Z,96.16
2016-04-26T01:00:27.788Z,96.26
2016-04-26T01:01:27.633Z,96.07
2016-04-26T01:02:27.746Z,96.26
2016-04-26T01:03:27.717Z,96.26
2016-04-26T01:04:27.705Z,96.45
2016-04-26T01:05:27.692Z,96.35
2016-04-26T01:06:27.663Z,96.16
2016-04-26T01:07:27.635Z,96.16
2016-04-26T01:08:27.621Z,95.97
2016-04-26T01:09:27.609Z,95.97
2016-04-26T01:10:27.579Z,96.26
2016-04-26T01:11:27.552Z,96.16
2016-04-26T01:12:27.538Z,96.16
2016-04-26T01:13:27.509Z,96.16
2016-04-26T01:14:27.498Z,96.54
2016-04-26T01:15:27.500Z,96.64
2016-04-26T01:16:27.487Z,96.16
2016-04-26T01:17:27.506Z,96.64
2016-04-26T01:18:27.414Z,96.35
2016-04-26T01:19:27.386Z,96.54
2016-04-26T01:20:27.373Z,96.45
2016-04-26T01:21:27.344Z,96.73
2016-04-26T01:22:27.330Z,96.26
2016-04-26T01:23:27.303Z,96.12
2016-04-26T01:24:27.289Z,96.83
2016-04-26T01:25:27.261Z,96.83
2016-04-26T01:26:27.248Z,96.45
2016-04-26T01:27:27.219Z,96.54
2016-04-26T01:28:27.206Z,96.35
2016-04-26T01:29:27.178Z,96.35
2016-04-26T01:30:27.166Z,96.35
2016-04-26T01:31:27.152Z,96.26
2016-04-26T01:32:27.124Z,96.73
2016-04-26T01:33:27.094Z,96.16
2016-04-26T01:34:27.082Z,96.92
2016-04-26T01:35:27.069Z,96.45
2016-04-26T01:36:27.041Z,96.92
2016-04-26T01:37:27.012Z,96.45
2016-04-26T01:38:26.999Z,96.92
2016-04-26T01:39:26.815Z,96.59
2016-04-26T01:40:26.958Z,97.02
2016-04-26T01:41:26.929Z,96.59
2016-04-26T01:42:26.915Z,96.59
2016-04-26T01:43:26.888Z,96.54
2016-04-26T01:44:26.874Z,96.73
2016-04-26T01:45:26.846Z,96.83
2016-04-26T01:46:26.833Z,96.54
2016-04-26T01:47:26.665Z,96.83
2016-04-26T01:48:26.792Z,96.92
2016-04-26T01:49:26.762Z,96.73
2016-04-26T01:50:26.750Z,96.54
2016-04-26T01:51:26.737Z,96.45
2016-04-26T01:52:26.708Z,96.54
2016-04-26T01:53:26.696Z,96.54
2016-04-26T01:54:26.667Z,96.45
2016-04-26T01:55:26.638Z,96.35
2016-04-26T01:56:26.626Z,96.54
2016-04-26T01:57:26.597Z,96.83
2016-04-26T01:58:26.583Z,96.54
2016-04-26T01:59:26.556Z,96.16
2016-04-26T02:00:26.542Z,96.16
2016-04-26T02:01:27.014Z,96.07
2016-04-26T02:02:26.377Z,95.88
2016-04-26T02:03:26.472Z,96.07
2016-04-26T02:04:26.460Z,96.26
2016-04-26T02:05:26.431Z,95.5
2016-04-26T02:06:26.418Z,95.69
2016-04-26T02:07:26.406Z,95.97
2016-04-26T02:08:26.361Z,96.07
2016-04-26T02:09:26.348Z,95.69
2016-04-26T02:10:26.336Z,95.78
2016-04-26T02:11:26.307Z,95.97
2016-04-26T02:12:26.293Z,95.88
2016-04-26T02:13:26.265Z,95.88
2016-04-26T02:14:26.252Z,95.21
2016-04-26T02:15:26.223Z,95.69
2016-04-26T02:16:26.195Z,95.31
2016-04-26T02:17:26.229Z,95.21
2016-04-26T02:18:26.185Z,95.5
2016-04-26T02:19:26.156Z,95.5
2016-04-26T02:20:26.128Z,95.59
2016-04-26T02:21:26.099Z,95.5
2016-04-26T02:22:25.930Z,95.78
2016-04-26T02:23:26.049Z,95.12
2016-04-26T02:24:26.036Z,95.21
2016-04-26T02:25:26.024Z,95.21
2016-04-26T02:26:25.994Z,95.4
2016-04-26T02:27:25.982Z,95.12
2016-04-26T02:28:25.985Z,95.31
2016-04-26T02:29:25.924Z,95.31
2016-04-26T02:30:25.912Z,95.21
2016-04-26T02:31:25.898Z,95.12
2016-04-26T02:32:25.871Z,95.21
2016-04-26T02:33:25.841Z,95.21
2016-04-26T02:34:25.828Z,95.31
2016-04-26T02:35:25.815Z,95.21
2016-04-26T02:36:25.787Z,95.31
2016-04-26T02:37:25.759Z,95.5
2016-04-26T02:38:25.745Z,95.5
2016-04-26T02:39:25.733Z,95.03
2016-04-26T02:40:25.704Z,94.65
2016-04-26T02:41:25.676Z,94.74
2016-04-26T02:42:25.662Z,94.65
2016-04-26T02:43:25.633Z,94.65
2016-04-26T02:44:25.621Z,94.56
2016-04-26T02:45:25.609Z,94.65
2016-04-26T02:46:25.580Z,94.84
2016-04-26T02:47:25.410Z,94.84
2016-04-26T02:48:25.539Z,94.46
2016-04-26T02:49:25.509Z,94.84
2016-04-26T02:50:25.496Z,94.84
2016-04-26T02:51:25.468Z,94.84
2016-04-26T02:52:25.456Z,94.93
2016-04-26T02:53:25.442Z,94.84
2016-04-26T02:54:25.413Z,94.93
2016-04-26T02:55:25.386Z,94.74
2016-04-26T02:56:25.371Z,94.84
2016-04-26T02:57:25.360Z,94.37
2016-04-26T02:58:25.330Z,94.18
2016-04-26T02:59:25.302Z,94.46
2016-04-26T03:00:25.305Z,94.46
2016-04-26T03:01:25.261Z,94.93
2016-04-26T03:02:25.404Z,94.18
2016-04-26T03:03:25.234Z,94.37
2016-04-26T03:04:25.207Z,94.18
2016-04-26T03:05:25.177Z,94.18
2016-04-26T03:06:25.180Z,94.37
2016-04-26T03:07:25.136Z,94.37
2016-04-26T03:08:25.123Z,94.37
2016-04-26T03:09:25.095Z,94.37
2016-04-26T03:10:25.065Z,94.18
2016-04-26T03:11:25.068Z,94.37
2016-04-26T03:12:25.040Z,94.46
2016-04-26T03:13:25.012Z,94.37
2016-04-26T03:14:24.998Z,94.46
2016-04-26T03:15:24.970Z,94.93
2016-04-26T03:16:24.941Z,93.8
2016-04-26T03:17:24.774Z,94.18
2016-04-26T03:18:24.917Z,94.18
2016-04-26T03:19:24.888Z,94.46
2016-04-26T03:20:24.875Z,94.93
2016-04-26T03:21:24.846Z,94.56
2016-04-26T03:22:24.834Z,93.99
2016-04-26T03:23:24.805Z,94.37
2016-04-26T03:24:24.792Z,94.56
2016-04-26T03:25:24.764Z,93.7
2016-04-26T03:26:24.751Z,93.99
2016-04-26T03:27:24.722Z,94.08
2016-04-26T03:28:24.694Z,93.99
2016-04-26T03:29:24.681Z,93.99
2016-04-26T03:30:24.652Z,93.89
2016-04-26T03:31:24.639Z,93.61
2016-04-26T03:32:24.830Z,93.8
2016-04-26T03:33:24.597Z,93.51
2016-04-26T03:34:24.585Z,93.89
2016-04-26T03:35:24.556Z,93.7
2016-04-26T03:36:24.543Z,93.89
2016-04-26T03:37:24.514Z,93.51
2016-04-26T03:38:24.486Z,93.61
2016-04-26T03:39:24.474Z,93.32
2016-04-26T03:40:24.444Z,93.61
2016-04-26T03:41:24.463Z,93.8
2016-04-26T03:42:24.403Z,93.32
2016-04-26T03:43:24.390Z,93.61
2016-04-26T03:44:24.362Z,92.94
2016-04-26T03:45:24.348Z,92.94
2016-04-26T03:46:24.336Z,92.85
2016-04-26T03:47:24.182Z,92.66
2016-04-26T03:48:24.293Z,92.76
2016-04-26T03:49:24.266Z,92.66
2016-04-26T03:50:24.237Z,92.85
2016-04-26T03:51:24.224Z,92.85
2016-04-26T03:52:24.212Z,92.94
2016-04-26T03:53:24.182Z,92.66
2016-04-26T03:54:24.154Z,92.85
2016-04-26T03:55:24.141Z,92.85
2016-04-26T03:56:24.112Z,92.76
2016-04-26T03:57:24.100Z,92.76
2016-04-26T03:58:24.070Z,92.94
2016-04-26T03:59:24.059Z,92.66
2016-04-26T04:00:24.030Z,92.76
2016-04-26T04:01:24.016Z,93.04
2016-04-26T04:02:23.864Z,92.85
2016-04-26T04:03:23.975Z,93.42
2016-04-26T04:04:23.946Z,93.42
2016-04-26T04:05:23.934Z,93.23
2016-04-26T04:06:24.139Z,93.61
2016-04-26T04:07:23.892Z,93.42
2016-04-26T04:08:23.880Z,93.42
2016-04-26T04:09:23.850Z,93.51
2016-04-26T04:10:23.832Z,92.57
2016-04-26T04:11:23.804Z,92.76
2016-04-26T04:12:23.806Z,92.76
2016-04-26T04:13:23.762Z,93.7
2016-04-26T04:14:23.765Z,93.51
2016-04-26T04:15:23.720Z,92.57
2016-04-26T04:16:23.707Z,92.85
2016-04-26T04:17:24.429Z,93.51
2016-04-26T04:18:23.650Z,93.42
2016-04-26T04:19:23.637Z,93.42
2016-04-26T04:20:23.625Z,93.42
2016-04-26T04:21:23.595Z,92.94
2016-04-26T04:22:23.567Z,92.85
2016-04-26T04:23:23.554Z,92.85
2016-04-26T04:24:23.542Z,92.85
2016-04-26T04:25:23.513Z,92.94
2016-04-26T04:26:23.484Z,93.7
2016-04-26T04:27:23.472Z,92.66
2016-04-26T04:28:23.442Z,92.94
2016-04-26T04:29:23.430Z,92.66
2016-04-26T04:30:23.401Z,92.76
2016-04-26T04:31:23.389Z,92.94
2016-04-26T04:32:23.579Z,92.76
2016-04-26T04:33:23.347Z,93.7
2016-04-26T04:34:23.334Z,92.19
2016-04-26T04:35:23.305Z,92.66
2016-04-26T04:36:23.277Z,93.04
2016-04-26T04:37:23.248Z,92.94
2016-04-26T04:38:23.251Z,92.94
2016-04-26T04:39:23.207Z,92.85
2016-04-26T04:40:23.194Z,92.76
2016-04-26T04:41:23.181Z,92.85
2016-04-26T04:42:23.168Z,92.85
2016-04-26T04:43:23.124Z,93.42
2016-04-26T04:44:23.110Z,92.85
2016-04-26T04:45:23.082Z,92.85
2016-04-26T04:46:23.070Z,92.85
2016-04-26T04:47:23.259Z,92.94
2016-04-26T04:48:23.028Z,92.76
2016-04-26T04:49:22.999Z,92.85
2016-04-26T04:50:22.986Z,92.29
2016-04-26T04:51:22.973Z,91.81
2016-04-26T04:52:22.945Z,91.81
2016-04-26T04:53:22.931Z,91.72
2016-04-26T04:54:22.903Z,91.81
2016-04-26T04:55:22.890Z,92.1
2016-04-26T04:56:22.861Z,92.66
2016-04-26T04:57:22.833Z,92
2016-04-26T04:58:22.820Z,91.72
2016-04-26T04:59:22.808Z,91.81
2016-04-26T05:00:22.778Z,91.53
2016-04-26T05:01:22.750Z,91.19
2016-04-26T05:02:22.738Z,91.38
2016-04-26T05:03:22.708Z,91.38
2016-04-26T05:04:22.696Z,91.48
2016-04-26T05:05:22.667Z,91.38
2016-04-26T05:06:22.685Z,91.38
2016-04-26T05:07:22.627Z,91.38
2016-04-26T05:08:22.612Z,91.05
2016-04-26T05:09:22.585Z,90.91
2016-04-26T05:10:22.572Z,91.19
2016-04-26T05:11:22.543Z,91.38
2016-04-26T05:12:22.530Z,91.57
2016-04-26T05:13:22.501Z,91.57
2016-04-26T05:14:22.488Z,91.15
2016-04-26T05:15:22.476Z,91.34
2016-04-26T05:16:22.431Z,91.34
2016-04-26T05:17:24.215Z,91.43
2016-04-26T05:18:22.389Z,91.34
2016-04-26T05:19:22.377Z,90.96
2016-04-26T05:20:22.365Z,91.19
2016-04-26T05:21:22.335Z,91.24
2016-04-26T05:22:22.323Z,91.24
2016-04-26T05:23:22.294Z,90.72
2016-04-26T05:24:22.281Z,91.19
2016-04-26T05:25:22.253Z,91.24
2016-04-26T05:26:22.223Z,90.81
2016-04-26T05:27:22.211Z,90.53
2016-04-26T05:28:22.198Z,91.29
2016-04-26T05:29:22.170Z,91.29
2016-04-26T05:30:22.156Z,90.53
2016-04-26T05:31:22.066Z,89.96
2016-04-26T05:32:22.115Z,89.87
2016-04-26T05:33:22.102Z,89.77
2016-04-26T05:34:22.074Z,90.63
2016-04-26T05:35:22.045Z,89.87
2016-04-26T05:36:22.032Z,90.06
2016-04-26T05:37:22.019Z,90.72
2016-04-26T05:38:22.005Z,90.34
2016-04-26T05:39:21.977Z,89.96
2016-04-26T05:40:21.949Z,89.39
2016-04-26T05:41:21.920Z,89.49
2016-04-26T05:42:21.907Z,89.87
2016-04-26T05:43:21.894Z,89.39
2016-04-26T05:44:21.882Z,89.01
2016-04-26T05:45:21.837Z,88.92
2016-04-26T05:46:21.824Z,88.82
2016-04-26T05:47:22.076Z,88.82
2016-04-26T05:48:21.626Z,88.54
2016-04-26T05:49:21.895Z,88.45
2016-04-26T05:50:21.742Z,88.54
2016-04-26T05:51:21.713Z,88.26
2016-04-26T05:52:21.700Z,87.78
2016-04-26T05:53:21.687Z,87.69
2016-04-26T05:54:21.659Z,87.5
2016-04-26T05:55:21.645Z,87.12
2016-04-26T05:56:21.648Z,87.78
2016-04-26T05:57:21.608Z,87.69
2016-04-26T05:58:21.631Z,87.78
2016-04-26T05:59:21.556Z,86.83
2016-04-26T06:00:24.715Z,85.74
2016-04-26T06:01:22.176Z,86.79
2016-04-26T06:02:21.511Z,86.88
2016-04-26T06:03:21.466Z,86.22
2016-04-26T06:04:21.469Z,86.12
2016-04-26T06:05:21.442Z,85.93
2016-04-26T06:06:21.413Z,85.84
2016-04-26T06:07:21.400Z,85.46
2016-04-26T06:08:21.371Z,85.46
2016-04-26T06:09:21.342Z,84.7
2016-04-26T06:10:21.329Z,84.23
2016-04-26T06:11:21.316Z,84.89
2016-04-26T06:12:21.288Z,84.42
2016-04-26T06:13:21.321Z,83.47
2016-04-26T06:14:21.262Z,82.9
2016-04-26T06:15:21.233Z,82.33
2016-04-26T06:16:21.221Z,82.52
2016-04-26T06:17:21.818Z,82.14
2016-04-26T06:18:21.366Z,82.43
2016-04-26T06:19:21.151Z,82.24
2016-04-26T06:20:21.168Z,82.37
2016-04-26T06:21:21.109Z,82.37
2016-04-26T06:22:21.083Z,80.38
2016-04-26T06:23:21.071Z,81.43
2016-04-26T06:24:21.058Z,80
2016-04-26T06:25:21.029Z,80
2016-04-26T06:26:21.016Z,78.96
2016-04-26T06:27:21.003Z,78.77
2016-04-26T06:28:20.974Z,78.11
2016-04-26T06:29:20.962Z,78.39
2016-04-26T06:30:20.934Z,79.82
2016-04-26T06:31:20.921Z,79.15
2016-04-26T06:32:21.126Z,79.06
2016-04-26T06:33:21.426Z,78.58
2016-04-26T06:34:20.865Z,78.77
2016-04-26T06:35:20.837Z,79.25
2016-04-26T06:36:20.825Z,79.34
2016-04-26T06:37:20.795Z,80
2016-04-26T06:38:20.783Z,79.63
2016-04-26T06:39:20.769Z,80.29
2016-04-26T06:40:20.742Z,81.14
2016-04-26T06:41:20.728Z,82.37
2016-04-26T06:42:20.715Z,82.37
2016-04-26T06:43:20.687Z,82.9
2016-04-26T06:44:20.674Z,83.66
2016-04-26T06:45:20.645Z,83.18
2016-04-26T06:46:20.633Z,83
2016-04-26T06:47:21.197Z,83.09
2016-04-26T06:48:20.591Z,84.23
2016-04-26T06:49:20.577Z,83.75
2016-04-26T06:50:20.549Z,84.32
2016-04-26T06:51:20.536Z,84.04
2016-04-26T06:52:20.523Z,83.56
2016-04-26T06:53:20.495Z,83.09
2016-04-26T06:54:20.482Z,82.81
2016-04-26T06:55:20.454Z,83.85
2016-04-26T06:56:20.440Z,84.51
2016-04-26T06:57:20.427Z,84.7
2016-04-26T06:58:20.414Z,84.23
2016-04-26T06:59:20.386Z,83.37
2016-04-26T07:00:20.357Z,82.33
2016-04-26T07:01:20.344Z,80.91
2016-04-26T07:02:20.159Z,81.48
2016-04-26T07:03:20.303Z,81.48
2016-04-26T07:04:20.275Z,81.01
2016-04-26T07:05:20.262Z,80.63
2016-04-26T07:06:20.249Z,80.72
2016-04-26T07:07:20.220Z,81.38
2016-04-26T07:08:20.223Z,81.29
2016-04-26T07:09:20.195Z,80.15
2016-04-26T07:10:20.166Z,79.11
2016-04-26T07:11:20.137Z,79.25
2016-04-26T07:12:20.202Z,79.34
2016-04-26T07:13:19.361Z,79.25
2016-04-26T07:14:20.083Z,79.25
2016-04-26T07:15:20.070Z,79.15
2016-04-26T07:16:20.041Z,80.1
2016-04-26T07:17:20.028Z,80.19
2016-04-26T07:18:19.875Z,81.14
2016-04-26T07:19:19.987Z,80.38
2016-04-26T07:20:19.974Z,81.14
2016-04-26T07:21:19.961Z,81.24
2016-04-26T07:22:19.791Z,80.95
2016-04-26T07:23:19.909Z,81.33
2016-04-26T07:24:19.895Z,80.57
2016-04-26T07:25:19.882Z,80.1
2016-04-26T07:26:19.854Z,80.57
2016-04-26T07:27:19.841Z,80.86
2016-04-26T07:28:19.829Z,81.43
2016-04-26T07:29:19.800Z,81.81
2016-04-26T07:30:19.803Z,81.24
2016-04-26T07:31:19.758Z,80.48
2016-04-26T07:32:20.745Z,81.05
2016-04-26T07:33:19.717Z,81.33
2016-04-26T07:34:19.703Z,80.76
2016-04-26T07:35:19.692Z,80.67
2016-04-26T07:36:19.661Z,80.67
2016-04-26T07:37:19.649Z,80.86
2016-04-26T07:38:19.637Z,80.67
2016-04-26T07:39:19.623Z,80.57
2016-04-26T07:40:19.595Z,80.38
2016-04-26T07:41:19.582Z,80.67
2016-04-26T07:42:19.569Z,80.86
2016-04-26T07:43:19.541Z,80.86
2016-04-26T07:44:19.527Z,81.05
2016-04-26T07:45:20.764Z,80.95
2016-04-26T07:46:19.485Z,80.38
2016-04-26T07:47:19.489Z,80.67
2016-04-26T07:48:19.460Z,80.38
2016-04-26T07:49:19.432Z,80.19
2016-04-26T07:50:19.403Z,80
2016-04-26T07:51:19.390Z,80.95
2016-04-26T07:52:19.377Z,81.14
2016-04-26T07:53:19.349Z,80.86
2016-04-26T07:54:19.335Z,81.33
2016-04-26T07:55:19.323Z,80.57
2016-04-26T07:56:19.293Z,80.67
2016-04-26T07:57:19.282Z,81.99
2016-04-26T07:58:19.269Z,82.94
2016-04-26T07:59:19.240Z,82.28
2016-04-26T08:00:19.212Z,82.18
2016-04-26T08:01:19.261Z,81.99
2016-04-26T08:02:19.184Z,81.24
2016-04-26T08:03:19.001Z,81.71
2016-04-26T08:04:19.144Z,82.66
2016-04-26T08:05:19.131Z,81.52
2016-04-26T08:06:19.102Z,80.19
2016-04-26T08:07:19.089Z,81.24
2016-04-26T08:08:19.076Z,80.19
2016-04-26T08:09:19.064Z,79.82
2016-04-26T08:10:19.036Z,80.19
2016-04-26T08:11:19.006Z,80.67
2016-04-26T08:12:19.009Z,81.24
2016-04-26T08:13:18.981Z,81.43
2016-04-26T08:14:18.952Z,81.81
2016-04-26T08:15:18.939Z,81.9
2016-04-26T08:16:18.926Z,82.56
2016-04-26T08:17:18.897Z,83.61
2016-04-26T08:18:20.150Z,82.85
2016-04-26T08:19:18.872Z,83.13
2016-04-26T08:20:18.844Z,83.42
2016-04-26T08:21:18.830Z,84.08
2016-04-26T08:22:18.802Z,83.04
2016-04-26T08:23:18.789Z,83.04
2016-04-26T08:24:18.776Z,82.85
2016-04-26T08:25:18.747Z,82.85
2016-04-26T08:26:18.734Z,82.47
2016-04-26T08:27:18.721Z,82.47
2016-04-26T08:28:18.849Z,82.56
2016-04-26T08:29:18.686Z,81.33
2016-04-26T08:30:18.661Z,80.86
2016-04-26T08:31:18.689Z,80.76
2016-04-26T08:32:18.703Z,76.54
2016-04-26T08:33:18.872Z,74.58
2016-04-26T08:34:18.761Z,75.81
2016-04-26T08:35:18.726Z,77.01
2016-04-26T08:36:18.774Z,75.78
2016-04-26T08:37:18.776Z,76.01
2016-04-26T08:38:18.763Z,76.1
2016-04-26T08:39:18.765Z,75.05
2016-04-26T08:40:18.766Z,76.01
2016-04-26T08:41:18.759Z,75.15
2016-04-26T08:42:18.752Z,76.1
2016-04-26T08:43:18.727Z,75.05
2016-04-26T08:44:18.721Z,74.68
2016-04-26T08:45:18.713Z,76.1
2016-04-26T08:46:18.701Z,76.95
2016-04-26T08:47:18.674Z,77.2
2016-04-26T08:48:18.523Z,77.71
2016-04-26T08:49:18.669Z,76.76
2016-04-26T08:50:18.642Z,77.01
2016-04-26T08:51:18.614Z,72.4
2016-04-26T08:52:18.617Z,72.09
2016-04-26T08:53:18.590Z,73.52
2016-04-26T08:54:18.578Z,72.63
2016-04-26T08:55:18.566Z,72.15
2016-04-26T08:56:18.553Z,72.81
2016-04-26T08:57:18.540Z,73.35
2016-04-26T08:58:18.513Z,74.96
2016-04-26T08:59:18.500Z,74.58
2016-04-26T09:00:18.502Z,71.48
2016-04-26T09:01:18.474Z,69.15
2016-04-26T09:02:18.445Z,70.57
2016-04-26T09:03:18.824Z,72.25
2016-04-26T09:04:18.420Z,72.44
2016-04-26T09:05:18.406Z,72.81
2016-04-26T09:06:18.394Z,73.38
2016-04-26T09:07:18.381Z,74.2
2016-04-26T09:08:18.353Z,73.82
2016-04-26T09:09:18.339Z,74.3
2016-04-26T09:10:18.358Z,75.81
2016-04-26T09:11:18.345Z,74.68
2016-04-26T09:12:18.317Z,74.68
2016-04-26T09:13:18.272Z,73.54
2016-04-26T09:14:18.259Z,72.59
2016-04-26T09:15:18.246Z,71.86
2016-04-26T09:16:18.233Z,69.87
2016-04-26T09:17:18.220Z,68.96
2016-04-26T09:18:18.130Z,69.81
2016-04-26T09:19:18.194Z,68.86
2016-04-26T09:20:18.181Z,68.86
2016-04-26T09:21:18.153Z,69.24
2016-04-26T09:22:18.156Z,69.15
2016-04-26T09:23:18.127Z,68.86
2016-04-26T09:24:18.113Z,68.96
2016-04-26T09:25:18.117Z,68.67
2016-04-26T09:26:18.088Z,67.44
2016-04-26T09:27:18.075Z,67.85
2016-04-26T09:28:18.063Z,68.52
2016-04-26T09:29:18.065Z,68.01
2016-04-26T09:30:18.037Z,69.24
2016-04-26T09:31:18.023Z,69.62
2016-04-26T09:32:18.010Z,70
2016-04-26T09:33:19.420Z,69.59
2016-04-26T09:34:17.985Z,69.68
2016-04-26T09:35:17.987Z,69.3
2016-04-26T09:36:17.960Z,67.53
2016-04-26T09:37:17.946Z,68.04
2016-04-26T09:38:17.917Z,67.19
2016-04-26T09:39:17.904Z,65.57
2016-04-26T09:40:17.892Z,64.9
2016-04-26T09:41:17.879Z,64.72
2016-04-26T09:42:17.865Z,64.53
2016-04-26T09:43:17.853Z,64.05
2016-04-26T09:44:17.856Z,65.67
2016-04-26T09:45:17.827Z,65.38
2016-04-26T09:46:17.814Z,64.37
2016-04-26T09:47:17.800Z,64.43
2016-04-26T09:48:17.788Z,63.23
2016-04-26T09:49:20.119Z,63.13
2016-04-26T09:50:17.794Z,63.7
2016-04-26T09:51:17.765Z,62.94
2016-04-26T09:52:17.752Z,62.65
2016-04-26T09:53:17.739Z,61.45
2016-04-26T09:54:19.477Z,62.94
2016-04-26T09:55:17.714Z,63.86
2016-04-26T09:56:17.699Z,65
2016-04-26T09:57:17.687Z,67.15
2016-04-26T09:58:17.674Z,68.39
2016-04-26T09:59:17.661Z,68.77
2016-04-26T10:00:17.649Z,68.86
2016-04-26T10:01:17.635Z,69.43
2016-04-26T10:02:17.638Z,70.1
2016-04-26T10:03:17.469Z,70.25
2016-04-26T10:04:17.471Z,69.96
2016-04-26T10:05:18.365Z,69.02
2016-04-26T10:06:17.571Z,68.92
2016-04-26T10:07:17.543Z,67.91
2016-04-26T10:08:17.545Z,67.44
2016-04-26T10:09:17.532Z,66.24
2016-04-26T10:10:17.519Z,65.41
2016-04-26T10:11:17.507Z,63.23
2016-04-26T10:12:17.478Z,64.24
2016-04-26T10:13:20.403Z,63.99
2016-04-26T10:14:17.451Z,63.13
2016-04-26T10:15:17.454Z,63.79
2016-04-26T10:16:17.441Z,62.65
2016-04-26T10:17:17.429Z,61.8
2016-04-26T10:18:17.650Z,62.08
2016-04-26T10:19:17.403Z,62.65
2016-04-26T10:20:17.375Z,62.85
2016-04-26T10:21:17.377Z,63.99
2016-04-26T10:22:17.363Z,64.65
2016-04-26T10:23:17.351Z,64.81
2016-04-26T10:24:17.354Z,64.05
2016-04-26T10:25:17.324Z,64.81
2016-04-26T10:26:17.313Z,66.24
2016-04-26T10:27:17.300Z,67.28
2016-04-26T10:28:17.286Z,67.85
2016-04-26T10:29:17.274Z,68.29
2016-04-26T10:30:17.260Z,69.53
2016-04-26T10:31:17.248Z,70.86
2016-04-26T10:32:17.235Z,70.76
2016-04-26T10:33:17.597Z,70.48
2016-04-26T10:34:17.788Z,71.62
2016-04-26T10:35:17.915Z,73.52
2016-04-26T10:36:17.182Z,74.52
2016-04-26T10:37:17.171Z,75.19
2016-04-26T10:38:17.156Z,76.42
2016-04-26T10:39:17.129Z,75
2016-04-26T10:40:17.115Z,75.76
2016-04-26T10:41:17.103Z,75.67
2016-04-26T10:42:17.089Z,76.52
2016-04-26T10:43:17.076Z,76.32
2016-04-26T10:44:17.064Z,76.32
2016-04-26T10:45:17.051Z,75.19
2016-04-26T10:46:17.037Z,75.67
2016-04-26T10:47:17.009Z,76.52
2016-04-26T10:48:17.372Z,76.99
2016-04-26T10:49:16.983Z,77.56
2016-04-26T10:50:16.971Z,77.37
2016-04-26T10:51:16.958Z,76.95
2016-04-26T10:52:16.928Z,77.52
2016-04-26T10:53:16.916Z,79.04
2016-04-26T10:54:16.903Z,79.33
2016-04-26T10:55:17.093Z,79.33
2016-04-26T10:56:16.878Z,79.23
2016-04-26T10:57:16.849Z,79.99
2016-04-26T10:58:16.836Z,80.18
2016-04-26T10:59:16.822Z,80.75
2016-04-26T11:00:16.794Z,81.04
2016-04-26T11:01:16.813Z,79.9
2016-04-26T11:02:16.769Z,79.33
2016-04-26T11:03:16.803Z,78.85
2016-04-26T11:04:17.040Z,78.85
2016-04-26T11:05:16.713Z,79.71
2016-04-26T11:06:16.702Z,78.89
2016-04-26T11:07:16.688Z,78.23
2016-04-26T11:08:16.660Z,79.36
2016-04-26T11:09:16.647Z,78.89
2016-04-26T11:10:16.634Z,79.42
2016-04-26T11:11:16.621Z,79.23
2016-04-26T11:12:16.592Z,79.61
2016-04-26T11:13:16.580Z,79.33
2016-04-26T11:14:16.567Z,79.42
2016-04-26T11:15:16.554Z,79.17
2016-04-26T11:16:16.525Z,79.14
2016-04-26T11:17:16.512Z,79.27
2016-04-26T11:18:17.265Z,78.61
2016-04-26T11:19:17.658Z,78.7
2016-04-26T11:20:16.458Z,77.94
2016-04-26T11:21:16.445Z,78.23
2016-04-26T11:22:16.431Z,78.89
2016-04-26T11:23:16.419Z,78.89
2016-04-26T11:24:16.406Z,78.99
2016-04-26T11:25:16.378Z,79.46
2016-04-26T11:26:16.364Z,81.07
2016-04-26T11:27:16.336Z,80.88
2016-04-26T11:28:16.323Z,82.88
2016-04-26T11:29:16.311Z,84.17
2016-04-26T11:30:16.297Z,85.68
2016-04-26T11:31:16.269Z,85.49
2016-04-26T11:32:16.255Z,84.83
2016-04-26T11:33:16.461Z,86.07
2016-04-26T11:34:16.683Z,85.59
2016-04-26T11:35:16.202Z,86.11
2016-04-26T11:36:16.188Z,87.06
2016-04-26T11:37:16.159Z,88.63
2016-04-26T11:38:16.147Z,88.92
2016-04-26T11:39:17.024Z,89.86
2016-04-26T11:40:16.121Z,89.91
2016-04-26T11:41:16.093Z,91.33
2016-04-26T11:42:16.079Z,91.43
2016-04-26T11:43:16.065Z,91.81
2016-04-26T11:44:16.037Z,91.9
2016-04-26T11:45:15.869Z,91.95
2016-04-26T11:46:15.996Z,92.23
2016-04-26T11:47:15.984Z,92.42
2016-04-26T11:48:16.174Z,92.61
2016-04-26T11:49:15.942Z,90.95
2016-04-26T11:50:15.929Z,91.71
2016-04-26T11:51:15.916Z,91.33
2016-04-26T11:52:15.887Z,90.29
2016-04-26T11:53:15.890Z,90.05
2016-04-26T11:54:15.878Z,91
2016-04-26T11:55:15.865Z,91.57
2016-04-26T11:56:15.820Z,91.57
2016-04-26T11:57:15.807Z,91.76
2016-04-26T11:58:15.794Z,92.14
2016-04-26T11:59:15.781Z,92.23
2016-04-26T12:00:15.752Z,92.85
2016-04-26T12:01:15.739Z,92.33
2016-04-26T12:02:15.727Z,92.76
2016-04-26T12:03:16.167Z,92.57
2016-04-26T12:04:16.544Z,92.85
2016-04-26T12:05:15.657Z,92.18
2016-04-26T12:06:15.660Z,91.99
2016-04-26T12:07:15.631Z,92.57
2016-04-26T12:08:15.602Z,92.66
2016-04-26T12:09:15.590Z,93.23
2016-04-26T12:10:15.576Z,91.33
2016-04-26T12:11:15.564Z,90.1
2016-04-26T12:12:15.535Z,90.29
2016-04-26T12:13:15.521Z,91.33
2016-04-26T12:14:15.493Z,90.67
2016-04-26T12:15:15.481Z,90.81
2016-04-26T12:16:15.498Z,91.66
2016-04-26T12:17:15.440Z,91.38
2016-04-26T12:18:15.707Z,92.42
2016-04-26T12:19:15.554Z,91.38
2016-04-26T12:20:15.384Z,91.9
2016-04-26T12:21:15.372Z,92.09
2016-04-26T12:22:15.342Z,92.76
2016-04-26T12:23:15.330Z,93.13
2016-04-26T12:24:15.317Z,93.89
2016-04-26T12:25:15.289Z,93.89
2016-04-26T12:26:15.275Z,93.7
2016-04-26T12:27:15.263Z,93.51
2016-04-26T12:28:15.234Z,94.51
2016-04-26T12:29:15.222Z,94.04
2016-04-26T12:30:15.208Z,92.66
2016-04-26T12:31:15.180Z,92.66
2016-04-26T12:32:15.167Z,92.94
2016-04-26T12:33:15.169Z,92.18
2016-04-26T12:34:15.500Z,92.23
2016-04-26T12:35:15.315Z,92.33
2016-04-26T12:36:15.100Z,92.8
2016-04-26T12:37:15.071Z,93.75
2016-04-26T12:38:15.058Z,93.94
2016-04-26T12:39:15.046Z,93.46
2016-04-26T12:40:15.032Z,93.75
2016-04-26T12:41:15.019Z,93.46
2016-04-26T12:42:14.991Z,93.84
2016-04-26T12:43:14.963Z,93.65
2016-04-26T12:44:14.949Z,91.95
2016-04-26T12:45:14.936Z,90.62
2016-04-26T12:46:14.908Z,91.09
2016-04-26T12:47:14.896Z,90.67
2016-04-26T12:48:14.882Z,91.52
2016-04-26T12:49:14.900Z,92.66
2016-04-26T12:50:14.841Z,92.94
2016-04-26T12:51:14.812Z,92.94
2016-04-26T12:52:14.815Z,92.19
2016-04-26T12:53:14.786Z,91.9
2016-04-26T12:54:14.757Z,92.99
2016-04-26T12:55:14.745Z,93.46